Terminal Aerodrome Forecast
Issued by NWS Wilmington, NC

Home | Current Version | Previous Version | Text Only | Print | Product List | Glossary On
Versions: 1 2 3 4 5 6 7 8 9 10 11 12 13 14 15
000
FTUS42 KILM 021100
TAFMYR
TAF
KMYR 021120Z 0212/0312 00000KT 6SM BR FEW016
     FM021400 VRB04KT P6SM FEW040
     FM021900 15006KT P6SM FEW045
     FM031000 00000KT 5SM BR SCT250=

USA.gov is the U.S. government's official web portal to all federal, state and local government web resources and services.